createdAt,value
2019-05-09T00:00:33.618Z,2.77
2019-05-09T00:04:39.631Z,2.43
2019-05-09T00:08:46.673Z,2.65
2019-05-09T00:12:54.061Z,2.50
2019-05-09T00:17:00.150Z,2.90
2019-05-09T00:21:14.493Z,2.67
2019-05-09T00:25:20.459Z,2.58
2019-05-09T00:29:36.505Z,2.50
2019-05-09T00:33:48.134Z,2.50
2019-05-09T00:37:55.833Z,2.25
2019-05-09T00:42:04.338Z,2.47
2019-05-09T00:46:29.451Z,2.40
2019-05-09T00:50:35.244Z,2.67
2019-05-09T00:54:41.058Z,2.45
2019-05-09T00:58:47.768Z,2.30
2019-05-09T01:02:54.166Z,2.52
2019-05-09T01:07:00.413Z,2.40
2019-05-09T01:11:14.613Z,2.47
2019-05-09T01:15:13.871Z,2.50
2019-05-09T01:19:23.143Z,2.72
2019-05-09T01:23:28.761Z,2.45
2019-05-09T01:27:35.600Z,2.30
2019-05-09T01:31:43.429Z,2.35
2019-05-09T01:35:50.311Z,2.35
2019-05-09T01:39:56.241Z,2.60
2019-05-09T01:44:04.094Z,2.60
2019-05-09T01:48:13.975Z,2.50
2019-05-09T01:56:25.987Z,2.33
2019-05-09T02:00:33.210Z,2.50
2019-05-09T02:04:39.442Z,3.62
2019-05-09T02:08:45.750Z,2.40
2019-05-09T02:12:53.647Z,2.27
2019-05-09T02:17:28.536Z,2.20
2019-05-09T02:21:34.695Z,2.62
2019-05-09T02:25:40.669Z,3.40
2019-05-09T02:29:46.282Z,4.25
2019-05-09T02:33:54.126Z,2.40
2019-05-09T02:38:00.657Z,2.27
2019-05-09T02:42:13.685Z,2.30
2019-05-09T02:46:38.310Z,2.42
2019-05-09T02:50:42.902Z,2.12
2019-05-09T02:54:49.949Z,2.60
2019-05-09T02:59:20.894Z,2.30
2019-05-09T03:03:29.736Z,2.30
2019-05-09T03:07:51.201Z,2.40
2019-05-09T03:11:58.893Z,2.27
2019-05-09T03:16:11.089Z,2.45
2019-05-09T03:20:30.178Z,2.40
2019-05-09T03:24:39.373Z,2.45
2019-05-09T03:29:10.747Z,2.70
2019-05-09T03:33:19.835Z,2.40
2019-05-09T03:37:24.891Z,2.30
2019-05-09T03:41:30.702Z,2.30
2019-05-09T03:45:51.975Z,3.17
2019-05-09T03:50:17.711Z,2.60
2019-05-09T03:54:24.289Z,2.52
2019-05-09T03:58:31.461Z,3.00
2019-05-09T04:02:38.362Z,2.25
2019-05-09T04:06:48.441Z,2.27
2019-05-09T04:10:58.582Z,2.15
2019-05-09T04:15:05.519Z,2.37
2019-05-09T04:19:14.800Z,4.33
2019-05-09T04:23:21.736Z,2.50
2019-05-09T04:27:30.738Z,3.85
2019-05-09T04:31:38.946Z,2.50
2019-05-09T04:35:47.568Z,2.30
2019-05-09T04:39:54.105Z,2.50
2019-05-09T04:44:04.999Z,2.30
2019-05-09T04:48:13.233Z,2.45
2019-05-09T04:52:18.176Z,5.12
2019-05-09T04:56:34.719Z,3.30
2019-05-09T05:00:58.674Z,2.55
2019-05-09T05:05:04.790Z,3.10
2019-05-09T05:09:10.497Z,5.08
2019-05-09T05:13:25.800Z,2.47
2019-05-09T05:17:24.405Z,4.10
2019-05-09T05:21:30.190Z,3.80
2019-05-09T05:25:38.126Z,2.45
2019-05-09T05:29:43.426Z,2.55
2019-05-09T05:33:57.939Z,2.65
2019-05-09T05:38:03.639Z,2.60
2019-05-09T05:42:09.284Z,2.37
2019-05-09T05:46:33.707Z,1.85
2019-05-09T05:50:40.217Z,2.02
2019-05-09T05:54:47.712Z,1.80
2019-05-09T05:58:53.532Z,1.50
2019-05-09T06:03:00.909Z,1.27
2019-05-09T06:07:07.999Z,1.25
2019-05-09T06:11:14.013Z,1.20
2019-05-09T06:15:19.762Z,1.02
2019-05-09T06:19:25.465Z,1.10
2019-05-09T06:23:31.174Z,1.15
2019-05-09T06:27:37.560Z,0.60
2019-05-09T06:31:43.837Z,0.98
2019-05-09T06:35:49.546Z,0.68
2019-05-09T06:39:58.269Z,0.78
2019-05-09T06:44:29.400Z,0.60
2019-05-09T06:52:40.859Z,0.57
2019-05-09T06:56:49.056Z,0.70
2019-05-09T07:01:01.276Z,0.85
2019-05-09T07:05:24.529Z,0.78
2019-05-09T07:09:44.615Z,0.70
2019-05-09T07:13:50.288Z,0.68
2019-05-09T07:17:57.510Z,0.62
2019-05-09T07:22:09.094Z,0.40
2019-05-09T07:26:17.868Z,0.70
2019-05-09T07:30:50.497Z,0.60
2019-05-09T07:34:59.880Z,0.60
2019-05-09T07:39:08.728Z,0.57
2019-05-09T07:43:14.909Z,0.60
2019-05-09T07:47:20.602Z,0.50
2019-05-09T07:51:27.486Z,0.65
2019-05-09T07:55:34.440Z,0.50
2019-05-09T07:59:40.077Z,0.60
2019-05-09T08:03:45.937Z,0.57
2019-05-09T08:07:51.710Z,0.45
2019-05-09T08:11:58.724Z,0.50
2019-05-09T08:16:07.939Z,0.40
2019-05-09T08:20:13.916Z,0.60
2019-05-09T08:24:19.876Z,0.50
2019-05-09T08:28:27.631Z,0.93
2019-05-09T08:32:32.758Z,0.78
2019-05-09T08:36:38.666Z,0.80
2019-05-09T08:40:44.288Z,0.70
2019-05-09T08:44:50.001Z,0.70
2019-05-09T08:48:57.625Z,0.60
2019-05-09T08:53:03.448Z,0.60
2019-05-09T08:57:09.165Z,0.65
2019-05-09T09:01:14.862Z,0.60
2019-05-09T09:05:23.111Z,0.60
2019-05-09T09:09:28.760Z,0.60
2019-05-09T09:13:34.536Z,0.60
2019-05-09T09:17:41.130Z,0.70
2019-05-09T09:21:49.697Z,0.50
2019-05-09T09:25:58.171Z,0.60
2019-05-09T09:30:16.508Z,0.50
2019-05-09T09:34:10.707Z,0.80
2019-05-09T09:38:17.720Z,0.65
2019-05-09T09:42:23.587Z,0.55
2019-05-09T09:46:29.262Z,0.55
2019-05-09T09:50:34.941Z,0.50
2019-05-09T09:54:40.635Z,0.70
2019-05-09T09:58:51.342Z,0.60
2019-05-09T10:02:58.688Z,0.62
2019-05-09T10:07:04.638Z,0.70
2019-05-09T10:11:11.102Z,0.50
2019-05-09T10:15:28.675Z,0.57
2019-05-09T10:19:48.368Z,0.50
2019-05-09T10:23:54.879Z,0.60
2019-05-09T10:28:00.642Z,0.50
2019-05-09T10:32:09.073Z,0.50
2019-05-09T10:36:14.674Z,0.42
2019-05-09T10:40:23.249Z,0.40
2019-05-09T10:44:48.884Z,0.50
2019-05-09T10:48:59.834Z,0.60
2019-05-09T10:53:07.848Z,0.70
2019-05-09T10:57:15.430Z,0.62
2019-05-09T11:01:21.035Z,0.60
2019-05-09T11:05:27.736Z,0.72
2019-05-09T11:09:33.498Z,0.50
2019-05-09T11:13:39.213Z,0.50
2019-05-09T11:17:47.312Z,0.68
2019-05-09T11:21:52.354Z,1.10
2019-05-09T11:25:58.150Z,0.70
2019-05-09T11:30:04.833Z,0.70
2019-05-09T11:34:10.834Z,1.07
2019-05-09T11:38:32.777Z,0.70
2019-05-09T11:42:28.331Z,0.50
2019-05-09T11:46:33.424Z,0.50
2019-05-09T11:50:39.117Z,0.70
2019-05-09T11:54:44.889Z,0.60
2019-05-09T11:58:50.891Z,0.68
2019-05-09T12:02:58.162Z,0.70
2019-05-09T12:07:04.160Z,0.60
2019-05-09T12:11:09.790Z,0.60
2019-05-09T12:16:50.140Z,0.72
2019-05-09T12:23:24.583Z,0.70
2019-05-09T12:24:23.839Z,0.70
2019-05-09T12:28:29.781Z,0.70
2019-05-09T12:32:38.517Z,0.70
2019-05-09T12:36:45.432Z,0.68
2019-05-09T12:40:51.160Z,0.70
2019-05-09T12:49:38.582Z,0.70
2019-05-09T12:53:44.524Z,0.70
2019-05-09T12:57:50.284Z,0.70
2019-05-09T13:01:58.024Z,0.60
2019-05-09T13:06:03.582Z,0.60
2019-05-09T13:10:09.333Z,0.70
2019-05-09T13:14:19.745Z,0.70
2019-05-09T13:18:37.580Z,0.60
2019-05-09T13:22:43.414Z,0.60
2019-05-09T13:26:50.955Z,0.60
2019-05-09T13:30:58.492Z,0.80
2019-05-09T13:35:04.402Z,0.60
2019-05-09T13:39:13.428Z,0.70
2019-05-09T13:43:19.705Z,0.67
2019-05-09T13:47:28.032Z,0.80
2019-05-09T13:51:35.166Z,0.70
2019-05-09T13:55:41.095Z,0.75
2019-05-09T13:59:48.573Z,0.68
2019-05-09T14:03:57.734Z,0.60
2019-05-09T14:08:07.976Z,0.80
2019-05-09T14:12:12.717Z,0.60
2019-05-09T14:16:22.162Z,0.70
2019-05-09T14:20:27.535Z,0.70
2019-05-09T14:24:33.203Z,0.60
2019-05-09T14:28:38.938Z,0.70
2019-05-09T14:32:44.582Z,0.80
2019-05-09T14:36:50.283Z,0.70
2019-05-09T14:40:55.941Z,0.67
2019-05-09T14:45:02.529Z,0.80
2019-05-09T14:49:09.902Z,0.80
2019-05-09T14:53:18.056Z,0.70
2019-05-09T14:57:24.423Z,0.70
2019-05-09T15:01:30.095Z,0.70
2019-05-09T15:05:37.753Z,0.70
2019-05-09T15:09:42.989Z,0.70
2019-05-09T15:13:48.683Z,0.70
2019-05-09T15:17:54.581Z,0.53
2019-05-09T15:22:02.932Z,0.70
2019-05-09T15:26:08.523Z,0.60
2019-05-09T15:30:14.201Z,0.60
2019-05-09T15:34:19.846Z,0.70
2019-05-09T15:38:25.674Z,0.78
2019-05-09T15:42:31.264Z,0.60
2019-05-09T15:46:42.378Z,0.53
2019-05-09T15:50:48.158Z,0.53
2019-05-09T15:54:54.010Z,0.70
2019-05-09T15:58:59.607Z,0.50
2019-05-09T16:03:05.375Z,0.70
2019-05-09T16:07:11.238Z,0.70
2019-05-09T16:11:18.014Z,0.68
2019-05-09T16:15:24.040Z,0.60
2019-05-09T16:19:29.887Z,0.60
2019-05-09T16:23:37.928Z,0.57
2019-05-09T16:27:42.993Z,0.70
2019-05-09T16:31:48.843Z,0.60
2019-05-09T16:35:56.460Z,0.60
2019-05-09T16:40:03.204Z,0.60
2019-05-09T16:44:08.915Z,0.60
2019-05-09T16:48:14.706Z,0.60
2019-05-09T16:52:20.349Z,0.53
2019-05-09T16:56:28.544Z,0.60
2019-05-09T17:00:39.544Z,0.80
2019-05-09T17:04:45.159Z,1.17
2019-05-09T17:08:52.171Z,0.90
2019-05-09T17:12:58.278Z,0.80
2019-05-09T17:17:04.157Z,0.80
2019-05-09T17:21:37.949Z,0.60
2019-05-09T17:25:43.974Z,0.55
2019-05-09T17:29:50.743Z,0.60
2019-05-09T17:33:57.939Z,0.97
2019-05-09T17:38:04.320Z,0.70
2019-05-09T17:42:10.156Z,0.80
2019-05-09T17:46:15.933Z,0.78
2019-05-09T17:50:21.717Z,0.75
2019-05-09T17:54:28.772Z,0.80
2019-05-09T17:58:34.791Z,1.07
2019-05-09T18:02:42.931Z,0.70
2019-05-09T18:06:49.013Z,0.80
2019-05-09T18:10:58.411Z,1.00
2019-05-09T18:15:04.598Z,0.70
2019-05-09T18:19:10.557Z,0.98
2019-05-09T18:23:17.717Z,0.80
2019-05-09T18:32:19.231Z,1.00
2019-05-09T18:36:29.939Z,1.00
2019-05-09T18:40:38.667Z,1.00
2019-05-09T18:44:44.691Z,0.90
2019-05-09T18:48:51.479Z,0.90
2019-05-09T18:52:59.910Z,0.90
2019-05-09T18:57:08.735Z,0.90
2019-05-09T19:01:17.140Z,0.85
2019-05-09T19:05:25.455Z,1.07
2019-05-09T19:09:31.788Z,1.07
2019-05-09T19:13:37.888Z,0.90
2019-05-09T19:17:54.470Z,1.10
2019-05-09T19:22:14.422Z,1.12
2019-05-09T19:26:32.756Z,1.00
2019-05-09T19:30:40.498Z,1.05
2019-05-09T19:34:46.785Z,1.02
2019-05-09T19:38:58.134Z,0.95
2019-05-09T19:43:05.412Z,1.10
2019-05-09T19:47:12.131Z,1.00
2019-05-09T19:51:21.797Z,1.05
2019-05-09T19:55:29.667Z,1.25
2019-05-09T19:59:37.728Z,1.20
2019-05-09T20:03:50.281Z,1.30
2019-05-09T20:07:56.510Z,1.17
2019-05-09T20:12:27.762Z,1.30
2019-05-09T20:16:35.159Z,1.40
2019-05-09T20:20:41.446Z,1.40
2019-05-09T20:24:50.142Z,1.30
2019-05-09T20:28:57.083Z,1.42
2019-05-09T20:33:04.778Z,1.50
2019-05-09T20:37:14.081Z,1.50
2019-05-09T20:41:21.495Z,1.57
2019-05-09T20:45:27.692Z,1.67
2019-05-09T20:49:34.168Z,1.50
2019-05-09T20:53:44.431Z,1.60
2019-05-09T20:57:52.061Z,1.67
2019-05-09T21:02:02.504Z,1.55
2019-05-09T21:06:11.028Z,1.75
2019-05-09T21:10:21.601Z,1.40
2019-05-09T21:14:30.050Z,1.32
2019-05-09T21:18:45.210Z,1.83
2019-05-09T21:22:52.643Z,1.77
2019-05-09T21:27:01.486Z,1.40
2019-05-09T21:31:12.996Z,1.65
2019-05-09T21:35:19.988Z,2.10
2019-05-09T21:39:26.235Z,2.42
2019-05-09T21:43:33.348Z,2.40
2019-05-09T21:47:45.544Z,1.50
2019-05-09T21:51:51.517Z,1.98
2019-05-09T21:55:57.452Z,2.52
2019-05-09T22:00:03.939Z,1.62
2019-05-09T22:04:14.398Z,1.60
2019-05-09T22:08:20.292Z,1.50
2019-05-09T22:12:25.960Z,1.00
2019-05-09T22:16:32.166Z,1.30
2019-05-09T22:20:38.032Z,1.12
2019-05-09T22:24:44.317Z,0.90
2019-05-09T22:28:51.296Z,0.90
2019-05-09T22:32:57.630Z,0.82
2019-05-09T22:37:05.002Z,0.90
2019-05-09T22:41:11.182Z,0.73
2019-05-09T22:45:16.990Z,0.85
2019-05-09T22:49:22.792Z,1.00
2019-05-09T22:53:28.535Z,0.82
2019-05-09T22:57:34.205Z,0.80
2019-05-09T23:01:44.312Z,0.72
2019-05-09T23:05:49.887Z,0.53
2019-05-09T23:09:56.891Z,0.60
2019-05-09T23:14:06.127Z,0.70
2019-05-09T23:18:19.126Z,0.60
2019-05-09T23:22:27.447Z,0.50
2019-05-09T23:26:33.213Z,0.55
2019-05-09T23:30:42.621Z,0.50
2019-05-09T23:39:18.505Z,0.60
2019-05-09T23:43:24.997Z,0.70
2019-05-09T23:47:34.236Z,0.60
2019-05-09T23:51:46.294Z,0.50
2019-05-09T23:56:11.542Z,0.40
